Time;durP1;ratioP1;P1;durP2;ratioP2;P2;SDS_P1;SDS_P2;PMS_P1;PMS_P2;Temp;Humidity;BMP_temperature;BMP_pressure;BME280_temperature;BME280_humidity;BME280_pressure;Samples;Min_cycle;Max_cycle;Signal;HPM_P1;HPM_P2
2024/02/19 00:00:12;;;;;;;21.48;14.13;;;;;;;;;;5117097;28;20063;-61
2024/02/19 00:02:39;;;;;;;19.60;13.75;;;;;;;;;;5116883;28;20015;-61
2024/02/19 00:05:06;;;;;;;19.55;13.77;;;;;;;;;;5098352;28;20034;-61
2024/02/19 00:07:31;;;;;;;18.42;13.40;;;;;;;;;;5097635;28;20019;-61
2024/02/19 00:09:57;;;;;;;17.58;12.85;;;;;;;;;;5116447;28;20370;-61
2024/02/19 00:12:22;;;;;;;18.23;12.43;;;;;;;;;;5116751;28;20024;-61
2024/02/19 00:14:47;;;;;;;21.17;15.05;;;;;;;;;;5097894;28;20415;-61
2024/02/19 00:17:13;;;;;;;18.85;13.32;;;;;;;;;;5116428;28;20038;-63
2024/02/19 00:19:39;;;;;;;16.38;12.05;;;;;;;;;;5116665;28;20020;-62
2024/02/19 00:22:07;;;;;;;16.67;12.15;;;;;;;;;;5115797;28;20039;-63
2024/02/19 00:24:32;;;;;;;17.08;12.30;;;;;;;;;;5115933;28;20111;-62
2024/02/19 00:26:57;;;;;;;15.23;12.10;;;;;;;;;;5097440;28;20454;-64
2024/02/19 00:29:23;;;;;;;17.00;11.88;;;;;;;;;;5098237;28;20036;-61
2024/02/19 00:31:48;;;;;;;15.48;12.02;;;;;;;;;;5115677;28;20028;-60
2024/02/19 00:34:13;;;;;;;16.45;12.80;;;;;;;;;;5115786;28;20054;-60
2024/02/19 00:36:39;;;;;;;17.83;13.13;;;;;;;;;;5115241;28;20492;-61
2024/02/19 00:39:05;;;;;;;17.75;12.48;;;;;;;;;;5115977;28;20393;-60
2024/02/19 00:41:31;;;;;;;19.63;14.07;;;;;;;;;;5098817;28;20346;-60
2024/02/19 00:43:56;;;;;;;16.05;12.50;;;;;;;;;;5115899;28;20016;-60
2024/02/19 00:46:21;;;;;;;18.20;12.30;;;;;;;;;;5097067;28;20026;-60
2024/02/19 00:48:47;;;;;;;15.95;12.20;;;;;;;;;;5115558;28;20423;-61
2024/02/19 00:51:12;;;;;;;18.08;13.25;;;;;;;;;;5096689;28;20020;-60
2024/02/19 00:53:39;;;;;;;17.73;13.40;;;;;;;;;;5115580;28;20032;-60
2024/02/19 00:56:04;;;;;;;18.55;13.65;;;;;;;;;;5097694;28;20038;-60
2024/02/19 00:58:30;;;;;;;19.13;13.73;;;;;;;;;;5115598;28;20023;-60
2024/02/19 01:00:58;;;;;;;21.98;14.15;;;;;;;;;;5115651;28;20393;-60
2024/02/19 01:03:23;;;;;;;20.00;13.80;;;;;;;;;;5115139;28;20077;-61
2024/02/19 01:05:48;;;;;;;19.83;13.65;;;;;;;;;;5115356;28;20024;-60
2024/02/19 01:08:14;;;;;;;19.77;13.40;;;;;;;;;;5115538;28;20055;-61
2024/02/19 01:10:39;;;;;;;20.65;13.18;;;;;;;;;;5115688;28;20055;-60
2024/02/19 01:13:04;;;;;;;21.45;14.20;;;;;;;;;;5097104;28;20031;-60
2024/02/19 01:15:30;;;;;;;19.40;13.88;;;;;;;;;;5115379;28;20378;-60
2024/02/19 01:17:55;;;;;;;18.52;13.15;;;;;;;;;;5115626;28;20036;-60
2024/02/19 01:20:20;;;;;;;18.02;13.27;;;;;;;;;;5115405;28;20042;-60
2024/02/19 01:22:46;;;;;;;19.50;13.27;;;;;;;;;;5079775;28;20020;-60
2024/02/19 01:25:12;;;;;;;16.90;12.73;;;;;;;;;;5114690;28;20469;-60
2024/02/19 01:27:37;;;;;;;17.40;13.07;;;;;;;;;;5096074;28;20151;-60
2024/02/19 01:30:05;;;;;;;16.30;11.82;;;;;;;;;;5115519;28;20081;-60
2024/02/19 01:32:39;;;;;;;17.48;12.07;;;;;;;;;;5115024;28;20028;-60
2024/02/19 01:35:05;;;;;;;17.05;11.82;;;;;;;;;;5096024;28;20362;-60
2024/02/19 01:37:31;;;;;;;15.85;11.40;;;;;;;;;;5114064;28;20038;-60
2024/02/19 01:39:56;;;;;;;16.35;11.88;;;;;;;;;;5114924;28;20023;-60
2024/02/19 01:42:22;;;;;;;16.75;11.27;;;;;;;;;;5097155;28;20039;-59
2024/02/19 01:44:48;;;;;;;14.93;11.40;;;;;;;;;;5114799;28;20034;-59
2024/02/19 01:47:13;;;;;;;16.65;12.80;;;;;;;;;;5114968;28;20102;-60
2024/02/19 01:49:38;;;;;;;18.63;13.18;;;;;;;;;;5115018;28;20074;-60
2024/02/19 01:52:05;;;;;;;19.48;12.73;;;;;;;;;;5114885;28;20051;-60
2024/02/19 01:54:30;;;;;;;15.18;11.80;;;;;;;;;;5079445;28;20047;-60
2024/02/19 01:56:56;;;;;;;17.40;12.02;;;;;;;;;;5114040;28;20389;-60
2024/02/19 01:59:21;;;;;;;17.13;12.32;;;;;;;;;;5114503;28;20069;-61
2024/02/19 02:01:47;;;;;;;17.98;12.75;;;;;;;;;;5096606;28;20036;-61
2024/02/19 02:04:12;;;;;;;18.88;12.30;;;;;;;;;;5114490;28;20020;-61
2024/02/19 02:06:38;;;;;;;17.10;11.70;;;;;;;;;;5096234;28;20065;-61
2024/02/19 02:09:04;;;;;;;12.82;10.90;;;;;;;;;;5114948;28;20047;-61
2024/02/19 02:11:30;;;;;;;13.40;10.25;;;;;;;;;;5114714;28;20084;-61
2024/02/19 02:13:57;;;;;;;16.00;11.50;;;;;;;;;;5114388;28;20031;-61
2024/02/19 02:16:49;;;;;;;15.30;10.85;;;;;;;;;;5100244;28;20523;-60
2024/02/19 02:19:17;;;;;;;13.82;10.88;;;;;;;;;;5114508;28;20043;-60
2024/02/19 02:21:44;;;;;;;14.90;11.43;;;;;;;;;;5113958;28;20059;-60
2024/02/19 02:24:09;;;;;;;15.25;11.30;;;;;;;;;;5095914;28;20054;-60
2024/02/19 02:26:36;;;;;;;18.08;11.85;;;;;;;;;;5097099;28;20031;-61
2024/02/19 02:29:01;;;;;;;15.65;11.95;;;;;;;;;;5113269;28;20039;-60
2024/02/19 02:31:27;;;;;;;16.45;11.85;;;;;;;;;;5114429;28;20038;-61
2024/02/19 02:33:52;;;;;;;17.75;11.88;;;;;;;;;;5114420;28;20058;-60
2024/02/19 02:36:17;;;;;;;16.65;11.70;;;;;;;;;;5114068;28;20526;-60
2024/02/19 02:38:43;;;;;;;16.77;11.68;;;;;;;;;;5114505;28;20036;-60
2024/02/19 02:41:08;;;;;;;14.75;11.40;;;;;;;;;;5114059;28;20019;-60
2024/02/19 02:43:33;;;;;;;15.60;11.43;;;;;;;;;;5114204;28;20027;-61
2024/02/19 02:45:59;;;;;;;13.93;10.82;;;;;;;;;;5114581;28;20069;-61
2024/02/19 02:48:24;;;;;;;14.35;11.32;;;;;;;;;;5116324;28;20072;-60
2024/02/19 02:50:49;;;;;;;15.38;11.05;;;;;;;;;;5118674;28;20460;-61
2024/02/19 02:53:15;;;;;;;13.70;10.30;;;;;;;;;;5100354;28;20027;-60
2024/02/19 02:55:42;;;;;;;15.90;10.70;;;;;;;;;;5118421;28;20031;-61
2024/02/19 02:58:07;;;;;;;14.52;10.85;;;;;;;;;;5099849;28;20419;-60
2024/02/19 03:00:32;;;;;;;12.07;10.20;;;;;;;;;;5117899;28;20040;-59
2024/02/19 03:02:58;;;;;;;14.68;11.30;;;;;;;;;;5118590;28;20537;-59
2024/02/19 03:05:23;;;;;;;12.57;10.57;;;;;;;;;;5117468;28;20027;-59
2024/02/19 03:07:48;;;;;;;15.55;10.43;;;;;;;;;;5099588;28;20018;-58
2024/02/19 03:10:14;;;;;;;16.83;11.18;;;;;;;;;;5117880;28;20393;-59
2024/02/19 03:12:39;;;;;;;14.20;10.45;;;;;;;;;;5117796;28;20465;-59
2024/02/19 03:15:05;;;;;;;14.25;10.27;;;;;;;;;;5118219;28;20495;-60
2024/02/19 03:17:30;;;;;;;14.77;10.15;;;;;;;;;;5118275;28;20469;-60
2024/02/19 03:19:56;;;;;;;14.65;9.98;;;;;;;;;;5117575;28;20085;-60
2024/02/19 03:22:21;;;;;;;13.15;10.32;;;;;;;;;;5117768;28;20475;-61
2024/02/19 03:24:48;;;;;;;13.82;10.07;;;;;;;;;;5117563;28;20034;-60
2024/02/19 03:27:14;;;;;;;12.88;10.05;;;;;;;;;;5117476;28;20500;-60
2024/02/19 03:29:39;;;;;;;11.68;9.82;;;;;;;;;;5117645;28;20031;-60
2024/02/19 03:32:04;;;;;;;15.85;10.23;;;;;;;;;;5117528;28;20031;-60
2024/02/19 03:34:30;;;;;;;15.05;10.35;;;;;;;;;;5118008;28;20035;-60
2024/02/19 03:36:56;;;;;;;14.43;10.55;;;;;;;;;;5117367;28;20138;-60
2024/02/19 03:39:22;;;;;;;15.73;10.50;;;;;;;;;;5098793;28;20102;-60
2024/02/19 03:41:49;;;;;;;13.85;10.70;;;;;;;;;;5117246;28;20080;-60
2024/02/19 03:44:15;;;;;;;13.55;9.80;;;;;;;;;;5099092;28;20042;-60
2024/02/19 03:46:40;;;;;;;14.30;10.52;;;;;;;;;;5098307;28;20110;-60
2024/02/19 03:49:06;;;;;;;12.50;9.88;;;;;;;;;;5117342;28;20074;-60
2024/02/19 03:51:31;;;;;;;15.20;10.30;;;;;;;;;;5116705;28;20027;-60
2024/02/19 03:53:57;;;;;;;15.05;10.20;;;;;;;;;;5081418;28;20043;-60
2024/02/19 03:56:22;;;;;;;13.18;10.25;;;;;;;;;;5116926;28;20036;-60
2024/02/19 03:58:47;;;;;;;14.27;10.15;;;;;;;;;;5116182;28;20166;-60
2024/02/19 04:01:13;;;;;;;15.02;10.10;;;;;;;;;;5115674;28;20031;-59
2024/02/19 04:03:38;;;;;;;14.27;10.73;;;;;;;;;;5116920;28;20474;-60
2024/02/19 04:06:04;;;;;;;14.43;10.32;;;;;;;;;;5116730;28;20051;-59
2024/02/19 04:08:32;;;;;;;15.25;10.60;;;;;;;;;;5116742;28;20381;-59
2024/02/19 04:10:57;;;;;;;13.75;10.15;;;;;;;;;;5116644;28;20461;-60
2024/02/19 04:13:23;;;;;;;14.27;10.38;;;;;;;;;;5098485;28;20035;-64
2024/02/19 04:15:48;;;;;;;15.10;10.75;;;;;;;;;;5098276;28;20019;-60
2024/02/19 04:18:13;;;;;;;12.18;10.25;;;;;;;;;;5098285;28;20541;-59
2024/02/19 04:20:39;;;;;;;14.77;10.30;;;;;;;;;;5116319;28;20028;-61
2024/02/19 04:23:04;;;;;;;12.55;9.85;;;;;;;;;;5116392;28;20439;-60
2024/02/19 04:25:29;;;;;;;12.10;9.70;;;;;;;;;;5098136;28;20484;-60
2024/02/19 04:27:55;;;;;;;12.77;9.65;;;;;;;;;;5116338;28;20031;-60
2024/02/19 04:30:20;;;;;;;10.82;9.10;;;;;;;;;;5116310;28;20031;-60
2024/02/19 04:32:45;;;;;;;13.55;9.60;;;;;;;;;;5098204;28;20067;-60
2024/02/19 04:35:11;;;;;;;14.43;10.38;;;;;;;;;;5116404;28;20036;-58
2024/02/19 04:37:36;;;;;;;13.90;9.98;;;;;;;;;;5116134;28;20023;-58
2024/02/19 04:40:02;;;;;;;12.82;9.57;;;;;;;;;;5115994;28;20122;-58
2024/02/19 04:42:28;;;;;;;13.57;9.50;;;;;;;;;;5098353;28;20114;-58
2024/02/19 04:44:54;;;;;;;12.82;10.38;;;;;;;;;;5116039;28;20104;-58
2024/02/19 04:47:19;;;;;;;11.43;9.23;;;;;;;;;;5097622;28;20073;-58
2024/02/19 04:49:46;;;;;;;13.88;9.65;;;;;;;;;;5115938;28;20035;-59
2024/02/19 04:52:11;;;;;;;13.20;9.98;;;;;;;;;;5096968;28;20089;-60
2024/02/19 04:54:36;;;;;;;12.63;9.57;;;;;;;;;;5115546;28;20036;-60
2024/02/19 04:57:02;;;;;;;14.85;9.65;;;;;;;;;;5116679;28;20374;-61
2024/02/19 04:59:29;;;;;;;13.48;9.82;;;;;;;;;;5116121;28;20420;-61
2024/02/19 05:01:55;;;;;;;15.98;10.52;;;;;;;;;;5116039;28;20035;-60
2024/02/19 05:04:21;;;;;;;13.38;10.13;;;;;;;;;;5116279;28;20023;-60
2024/02/19 05:06:47;;;;;;;13.65;9.95;;;;;;;;;;5114676;28;20028;-60
2024/02/19 05:09:13;;;;;;;13.77;10.02;;;;;;;;;;5114776;28;20632;-60
2024/02/19 05:11:38;;;;;;;12.95;9.57;;;;;;;;;;5113458;28;20059;-60
2024/02/19 05:14:04;;;;;;;13.27;9.43;;;;;;;;;;5114578;28;20489;-60
2024/02/19 05:16:29;;;;;;;10.57;8.98;;;;;;;;;;5114312;28;20070;-60
2024/02/19 05:18:56;;;;;;;13.55;10.30;;;;;;;;;;5114427;28;20030;-59
2024/02/19 05:21:23;;;;;;;12.27;9.65;;;;;;;;;;5115026;28;20031;-59
2024/02/19 05:23:48;;;;;;;10.25;8.43;;;;;;;;;;5115758;28;20343;-59
2024/02/19 05:26:27;;;;;;;12.02;9.75;;;;;;;;;;5115221;28;20068;-59
2024/02/19 05:28:53;;;;;;;11.90;8.73;;;;;;;;;;5115914;28;20024;-59
2024/02/19 05:31:41;;;;;;;12.10;9.38;;;;;;;;;;5096916;28;20027;-59
2024/02/19 05:34:06;;;;;;;11.52;9.60;;;;;;;;;;5128051;22;20044;-62
2024/02/19 05:36:32;;;;;;;14.05;11.00;;;;;;;;;;5095942;28;20035;-60
2024/02/19 05:39:17;;;;;;;15.43;10.73;;;;;;;;;;5114684;22;20056;-57
2024/02/19 05:41:43;;;;;;;13.10;9.95;;;;;;;;;;5080628;22;20031;-57
2024/02/19 05:44:09;;;;;;;11.93;9.60;;;;;;;;;;5107469;22;20055;-62
2024/02/19 05:46:35;;;;;;;14.40;10.15;;;;;;;;;;5076357;28;20024;-62
2024/02/19 05:49:00;;;;;;;16.70;10.13;;;;;;;;;;5076508;28;20032;-62
2024/02/19 05:51:27;;;;;;;13.88;10.20;;;;;;;;;;5094932;28;20035;-62
2024/02/19 05:53:52;;;;;;;13.77;9.20;;;;;;;;;;5094607;28;20032;-61
2024/02/19 05:56:18;;;;;;;13.38;9.32;;;;;;;;;;5094804;28;20031;-61
2024/02/19 05:58:44;;;;;;;9.55;8.13;;;;;;;;;;5094011;28;20481;-61
2024/02/19 06:01:11;;;;;;;12.07;8.55;;;;;;;;;;5094317;28;20480;-61
2024/02/19 06:03:36;;;;;;;10.98;8.70;;;;;;;;;;5094430;28;20023;-56
2024/02/19 06:06:02;;;;;;;10.20;7.72;;;;;;;;;;5094420;28;20470;-56
2024/02/19 06:08:28;;;;;;;9.70;8.55;;;;;;;;;;5094359;28;20434;-55
2024/02/19 06:10:54;;;;;;;11.63;8.57;;;;;;;;;;5094631;28;20020;-56
2024/02/19 06:13:19;;;;;;;13.15;9.57;;;;;;;;;;5093730;28;20043;-55
2024/02/19 06:15:45;;;;;;;14.68;10.23;;;;;;;;;;5093566;28;20088;-56
2024/02/19 06:18:10;;;;;;;13.73;9.25;;;;;;;;;;5094235;28;20039;-56
2024/02/19 06:20:36;;;;;;;13.10;9.57;;;;;;;;;;5094018;28;20024;-56
2024/02/19 06:23:02;;;;;;;11.43;8.75;;;;;;;;;;5058648;28;20020;-55
2024/02/19 06:25:28;;;;;;;12.75;9.10;;;;;;;;;;5093922;28;20020;-56
2024/02/19 06:27:53;;;;;;;12.90;8.52;;;;;;;;;;5094477;28;20400;-56
2024/02/19 06:30:18;;;;;;;10.82;8.48;;;;;;;;;;5094019;28;20492;-55
2024/02/19 06:32:44;;;;;;;13.05;9.02;;;;;;;;;;5094225;28;20469;-55
2024/02/19 06:35:09;;;;;;;12.43;8.65;;;;;;;;;;5093851;28;20470;-56
2024/02/19 06:37:35;;;;;;;15.75;10.48;;;;;;;;;;5076162;28;20412;-55
2024/02/19 06:40:00;;;;;;;12.15;9.50;;;;;;;;;;5093079;28;20020;-55
2024/02/19 06:42:27;;;;;;;14.52;9.85;;;;;;;;;;5092685;28;20381;-56
2024/02/19 06:44:52;;;;;;;12.23;9.02;;;;;;;;;;5092354;28;20459;-55
2024/02/19 06:47:17;;;;;;;12.73;9.32;;;;;;;;;;5092364;28;20044;-55
2024/02/19 06:49:43;;;;;;;14.02;9.77;;;;;;;;;;5092322;28;20492;-55
2024/02/19 06:52:08;;;;;;;22.67;14.05;;;;;;;;;;5092442;28;20101;-55
2024/02/19 06:54:34;;;;;;;24.38;15.73;;;;;;;;;;5074224;28;20104;-55
2024/02/19 06:56:59;;;;;;;25.85;16.80;;;;;;;;;;5092539;28;20044;-55
2024/02/19 06:59:24;;;;;;;24.65;16.13;;;;;;;;;;5092193;28;20362;-55
2024/02/19 07:01:50;;;;;;;103.00;66.03;;;;;;;;;;5092175;28;20549;-55
2024/02/19 07:04:15;;;;;;;69.72;45.10;;;;;;;;;;5093055;28;20115;-55
2024/02/19 07:06:40;;;;;;;58.58;35.08;;;;;;;;;;5093511;28;20114;-55
2024/02/19 07:09:06;;;;;;;40.22;23.02;;;;;;;;;;5093728;28;20034;-56
2024/02/19 07:11:31;;;;;;;117.22;57.35;;;;;;;;;;5093670;28;20385;-55
2024/02/19 07:13:56;;;;;;;42.50;24.42;;;;;;;;;;5075365;28;20040;-55
2024/02/19 07:16:22;;;;;;;28.58;17.27;;;;;;;;;;5093913;28;20034;-55
2024/02/19 07:18:47;;;;;;;25.35;15.68;;;;;;;;;;5093457;28;20377;-55
2024/02/19 07:21:13;;;;;;;26.40;17.13;;;;;;;;;;5093379;28;20448;-55
2024/02/19 07:23:38;;;;;;;26.15;16.38;;;;;;;;;;5093643;28;20397;-55
2024/02/19 07:26:04;;;;;;;27.85;17.45;;;;;;;;;;5093010;28;20099;-55
2024/02/19 07:28:29;;;;;;;24.58;16.50;;;;;;;;;;5093730;28;20063;-55
2024/02/19 07:30:55;;;;;;;24.98;16.58;;;;;;;;;;5075161;28;20020;-55
2024/02/19 07:33:20;;;;;;;29.38;17.35;;;;;;;;;;5093526;28;20090;-55
2024/02/19 07:35:46;;;;;;;26.23;16.90;;;;;;;;;;5096184;28;20024;-55
2024/02/19 07:38:11;;;;;;;28.65;16.70;;;;;;;;;;5097233;28;20081;-55
2024/02/19 07:40:36;;;;;;;18.10;11.15;;;;;;;;;;5097622;28;20081;-55
2024/02/19 07:43:02;;;;;;;16.10;11.07;;;;;;;;;;5096926;28;20039;-56
2024/02/19 07:45:27;;;;;;;16.98;11.65;;;;;;;;;;5078629;28;20028;-55
2024/02/19 07:47:53;;;;;;;15.32;10.82;;;;;;;;;;5096903;28;20036;-55
2024/02/19 07:50:18;;;;;;;17.73;13.57;;;;;;;;;;5062037;28;20028;-55
2024/02/19 07:52:44;;;;;;;16.10;11.43;;;;;;;;;;5096963;28;20062;-55
2024/02/19 07:55:10;;;;;;;14.50;10.05;;;;;;;;;;5078505;28;20055;-55
2024/02/19 07:57:35;;;;;;;14.50;9.60;;;;;;;;;;5096598;28;20470;-55
2024/02/19 08:00:00;;;;;;;12.73;9.77;;;;;;;;;;5096989;28;20093;-55
2024/02/19 08:02:26;;;;;;;12.40;9.63;;;;;;;;;;5096639;28;20056;-55
2024/02/19 08:04:51;;;;;;;15.52;11.05;;;;;;;;;;5096451;28;20504;-55
2024/02/19 08:07:16;;;;;;;17.90;11.23;;;;;;;;;;5096660;28;20027;-56
2024/02/19 08:09:43;;;;;;;15.05;10.95;;;;;;;;;;5096763;28;20089;-55
2024/02/19 08:12:08;;;;;;;15.25;10.38;;;;;;;;;;5096301;28;20075;-61
2024/02/19 08:14:35;;;;;;;15.10;10.43;;;;;;;;;;5096839;28;20051;-61
2024/02/19 08:17:00;;;;;;;14.88;11.30;;;;;;;;;;5096390;28;20506;-61
2024/02/19 08:19:26;;;;;;;19.77;13.38;;;;;;;;;;5096329;28;20123;-61
2024/02/19 08:21:51;;;;;;;24.70;16.02;;;;;;;;;;5096803;28;20141;-61
2024/02/19 08:24:17;;;;;;;25.10;17.13;;;;;;;;;;5096310;28;20039;-61
2024/02/19 08:26:42;;;;;;;23.58;15.73;;;;;;;;;;5096568;28;20035;-61
2024/02/19 08:29:08;;;;;;;21.65;15.13;;;;;;;;;;5078153;28;20082;-61
2024/02/19 08:31:33;;;;;;;22.80;15.15;;;;;;;;;;5096161;28;20032;-61
2024/02/19 08:33:58;;;;;;;22.85;14.30;;;;;;;;;;5095869;28;20424;-61
2024/02/19 08:36:24;;;;;;;18.08;13.30;;;;;;;;;;5096001;28;20486;-61
2024/02/19 08:38:50;;;;;;;18.20;13.77;;;;;;;;;;5095903;28;20154;-61
2024/02/19 08:41:15;;;;;;;19.40;13.70;;;;;;;;;;5096048;28;20035;-61
2024/02/19 08:43:40;;;;;;;19.40;13.23;;;;;;;;;;5095805;28;20435;-65
2024/02/19 08:46:06;;;;;;;22.65;14.38;;;;;;;;;;5095132;28;20032;-61
2024/02/19 08:48:31;;;;;;;16.85;13.07;;;;;;;;;;5096044;28;20034;-61
2024/02/19 08:50:56;;;;;;;18.20;12.63;;;;;;;;;;5095850;28;20028;-61
2024/02/19 08:53:23;;;;;;;16.50;12.35;;;;;;;;;;5077178;28;20085;-61
2024/02/19 08:55:48;;;;;;;16.08;12.45;;;;;;;;;;5095655;28;20458;-61
2024/02/19 08:58:14;;;;;;;23.25;13.10;;;;;;;;;;5095678;28;20050;-61
2024/02/19 09:00:39;;;;;;;16.20;11.77;;;;;;;;;;5095312;28;20104;-61
2024/02/19 09:03:06;;;;;;;16.73;12.48;;;;;;;;;;5095682;28;20024;-61
2024/02/19 09:05:31;;;;;;;17.60;11.88;;;;;;;;;;5095542;28;20082;-61
2024/02/19 09:07:57;;;;;;;18.25;13.10;;;;;;;;;;5095593;28;20028;-61
2024/02/19 09:10:22;;;;;;;16.83;12.73;;;;;;;;;;5095285;28;20612;-61
2024/02/19 09:12:48;;;;;;;17.17;12.82;;;;;;;;;;5095133;28;20028;-61
2024/02/19 09:15:14;;;;;;;17.35;12.00;;;;;;;;;;5095977;28;20382;-61
2024/02/19 09:17:39;;;;;;;17.58;12.65;;;;;;;;;;5095042;28;20032;-61
2024/02/19 09:20:06;;;;;;;16.90;13.07;;;;;;;;;;5076664;28;20493;-61
2024/02/19 09:22:31;;;;;;;15.85;12.90;;;;;;;;;;5095250;28;20028;-61
2024/02/19 09:24:57;;;;;;;16.92;13.48;;;;;;;;;;5094859;28;20023;-61
2024/02/19 09:27:22;;;;;;;16.02;12.85;;;;;;;;;;5095102;28;20039;-61
2024/02/19 09:29:47;;;;;;;18.92;13.13;;;;;;;;;;5095592;28;20032;-61
2024/02/19 09:32:13;;;;;;;17.40;12.48;;;;;;;;;;5094752;28;20382;-61
2024/02/19 09:34:40;;;;;;;14.25;11.82;;;;;;;;;;5094850;28;20107;-61
2024/02/19 09:37:05;;;;;;;15.18;11.40;;;;;;;;;;5094916;28;20382;-61
2024/02/19 09:39:31;;;;;;;15.25;11.63;;;;;;;;;;5094531;28;20042;-61
2024/02/19 09:41:56;;;;;;;16.20;11.57;;;;;;;;;;5094814;28;20024;-61
2024/02/19 09:44:22;;;;;;;16.30;11.13;;;;;;;;;;5094550;28;20437;-61
2024/02/19 09:46:48;;;;;;;17.13;11.30;;;;;;;;;;5095027;28;20115;-61
2024/02/19 09:49:14;;;;;;;14.27;11.95;;;;;;;;;;5094984;28;20027;-61
2024/02/19 09:51:46;;;;;;;14.15;10.68;;;;;;;;;;5094669;28;20446;-61
2024/02/19 09:54:11;;;;;;;13.15;9.85;;;;;;;;;;5094912;28;20035;-61
2024/02/19 09:56:37;;;;;;;11.70;9.60;;;;;;;;;;5094218;28;20115;-62
2024/02/19 09:59:04;;;;;;;13.15;9.52;;;;;;;;;;5075884;28;20039;-61
2024/02/19 10:01:29;;;;;;;12.60;9.85;;;;;;;;;;5094254;28;20055;-61
2024/02/19 10:03:56;;;;;;;14.40;10.27;;;;;;;;;;5094980;28;20020;-61
2024/02/19 10:06:29;;;;;;;13.13;10.35;;;;;;;;;;5094136;28;20031;-61
2024/02/19 10:08:54;;;;;;;13.07;9.35;;;;;;;;;;5076398;28;20063;-61
2024/02/19 10:11:20;;;;;;;11.23;8.82;;;;;;;;;;5094115;28;20046;-62
2024/02/19 10:13:45;;;;;;;11.07;7.90;;;;;;;;;;5094052;28;20374;-61
2024/02/19 10:16:11;;;;;;;10.80;8.40;;;;;;;;;;5076479;28;20093;-61
2024/02/19 10:18:37;;;;;;;11.07;9.10;;;;;;;;;;5094185;28;20470;-61
2024/02/19 10:21:03;;;;;;;10.90;8.23;;;;;;;;;;5093927;28;20106;-61
2024/02/19 10:23:29;;;;;;;9.52;7.57;;;;;;;;;;5094503;28;20553;-61
2024/02/19 10:25:55;;;;;;;9.38;8.30;;;;;;;;;;5094520;28;20031;-61
2024/02/19 10:28:22;;;;;;;10.00;7.82;;;;;;;;;;5093885;28;20060;-61
2024/02/19 10:30:47;;;;;;;10.10;7.15;;;;;;;;;;5094073;28;20404;-61
2024/02/19 10:33:12;;;;;;;12.43;9.20;;;;;;;;;;5093783;28;20108;-61
2024/02/19 10:35:38;;;;;;;9.00;7.15;;;;;;;;;;5093784;28;20077;-61
2024/02/19 10:38:03;;;;;;;10.35;7.72;;;;;;;;;;5093787;28;20507;-61
2024/02/19 10:40:29;;;;;;;8.82;6.75;;;;;;;;;;5093606;28;20028;-61
2024/02/19 10:42:56;;;;;;;10.43;7.45;;;;;;;;;;5093803;28;20119;-61
2024/02/19 10:45:21;;;;;;;9.95;7.47;;;;;;;;;;5094018;28;20118;-61
2024/02/19 10:47:47;;;;;;;11.40;7.93;;;;;;;;;;5093682;28;20036;-61
2024/02/19 10:50:17;;;;;;;8.23;6.80;;;;;;;;;;5075519;28;20042;-61
2024/02/19 10:52:43;;;;;;;10.88;7.30;;;;;;;;;;5093910;28;20032;-61
2024/02/19 10:55:10;;;;;;;12.90;8.30;;;;;;;;;;5075611;28;20028;-61
2024/02/19 10:57:43;;;;;;;10.77;8.23;;;;;;;;;;5075441;28;20124;-62
2024/02/19 11:00:09;;;;;;;10.05;6.88;;;;;;;;;;5093748;28;20089;-61
2024/02/19 11:02:36;;;;;;;9.70;7.90;;;;;;;;;;5093796;28;20365;-61
2024/02/19 11:05:02;;;;;;;6.28;5.32;;;;;;;;;;5075339;28;20381;-61
2024/02/19 11:07:31;;;;;;;8.90;6.28;;;;;;;;;;5093525;28;20024;-61
2024/02/19 11:10:00;;;;;;;7.03;6.32;;;;;;;;;;5097100;28;20461;-61
2024/02/19 11:12:26;;;;;;;8.98;6.78;;;;;;;;;;5079329;28;20466;-61
2024/02/19 11:14:52;;;;;;;8.27;6.47;;;;;;;;;;5097712;28;20501;-61
2024/02/19 11:17:17;;;;;;;6.00;4.75;;;;;;;;;;5097367;28;20036;-61
2024/02/19 11:19:43;;;;;;;5.10;4.20;;;;;;;;;;5097274;28;20115;-55
2024/02/19 11:22:09;;;;;;;7.95;6.47;;;;;;;;;;5097545;28;20583;-55
2024/02/19 11:24:36;;;;;;;3.63;3.33;;;;;;;;;;5097780;28;20020;-55
2024/02/19 11:27:05;;;;;;;5.32;4.75;;;;;;;;;;5062343;28;20035;-55
2024/02/19 11:29:30;;;;;;;5.60;4.95;;;;;;;;;;5097463;28;20044;-55
2024/02/19 11:32:03;;;;;;;5.30;4.20;;;;;;;;;;5097016;28;20466;-55
2024/02/19 11:34:29;;;;;;;6.00;4.65;;;;;;;;;;5097031;28;20482;-55
2024/02/19 11:37:08;;;;;;;5.15;4.47;;;;;;;;;;5097423;28;20070;-55
2024/02/19 11:39:34;;;;;;;4.20;3.80;;;;;;;;;;5097250;28;20043;-55
2024/02/19 11:41:59;;;;;;;5.07;4.35;;;;;;;;;;5097237;28;20024;-55
2024/02/19 11:44:25;;;;;;;4.03;3.60;;;;;;;;;;5096711;28;20554;-55
2024/02/19 11:46:52;;;;;;;3.65;3.28;;;;;;;;;;5096811;28;20023;-55
2024/02/19 11:49:19;;;;;;;3.80;3.47;;;;;;;;;;5078671;28;20043;-55
2024/02/19 11:51:45;;;;;;;5.57;4.72;;;;;;;;;;5096737;28;20470;-55
2024/02/19 11:54:11;;;;;;;4.50;4.10;;;;;;;;;;5096974;28;20177;-55
2024/02/19 11:56:44;;;;;;;3.95;3.50;;;;;;;;;;5096591;28;20046;-55
2024/02/19 11:59:10;;;;;;;4.50;3.95;;;;;;;;;;5096531;28;20032;-55
2024/02/19 12:01:35;;;;;;;4.50;3.78;;;;;;;;;;5096771;28;20035;-55
2024/02/19 12:04:01;;;;;;;3.38;3.10;;;;;;;;;;5096996;28;20024;-55
2024/02/19 12:06:27;;;;;;;4.20;3.80;;;;;;;;;;5096436;28;20595;-55
2024/02/19 12:08:52;;;;;;;3.30;3.10;;;;;;;;;;5096685;28;20030;-55
2024/02/19 12:11:17;;;;;;;3.85;3.45;;;;;;;;;;5096733;28;20081;-56
2024/02/19 12:13:43;;;;;;;4.20;3.13;;;;;;;;;;5096782;28;20039;-55
2024/02/19 12:16:09;;;;;;;6.68;3.95;;;;;;;;;;5096274;28;20016;-55
2024/02/19 12:18:35;;;;;;;4.82;4.35;;;;;;;;;;5096718;28;20073;-55
2024/02/19 12:21:03;;;;;;;5.43;4.88;;;;;;;;;;5095473;28;20032;-55
2024/02/19 12:23:28;;;;;;;5.03;4.53;;;;;;;;;;5096132;28;20036;-55
2024/02/19 12:25:53;;;;;;;3.90;3.50;;;;;;;;;;5096092;28;20032;-55
2024/02/19 12:28:19;;;;;;;3.90;3.60;;;;;;;;;;5096309;28;20470;-55
2024/02/19 12:30:45;;;;;;;4.60;4.15;;;;;;;;;;5095799;28;20036;-55
2024/02/19 12:33:11;;;;;;;4.20;3.90;;;;;;;;;;5096248;28;20027;-55
2024/02/19 12:35:36;;;;;;;5.03;3.85;;;;;;;;;;5077835;28;20389;-55
2024/02/19 12:38:01;;;;;;;3.83;3.45;;;;;;;;;;5096151;28;20111;-55
2024/02/19 12:40:27;;;;;;;4.97;4.07;;;;;;;;;;5095695;28;20031;-55
2024/02/19 12:42:52;;;;;;;6.05;3.78;;;;;;;;;;5096360;28;20031;-55
2024/02/19 12:45:18;;;;;;;3.88;3.58;;;;;;;;;;5095568;28;20067;-56
2024/02/19 12:47:43;;;;;;;4.25;3.78;;;;;;;;;;5095675;28;20500;-55
2024/02/19 12:50:08;;;;;;;5.85;3.65;;;;;;;;;;5095577;28;20034;-55
2024/02/19 12:52:34;;;;;;;4.35;3.95;;;;;;;;;;5095807;28;20035;-55
2024/02/19 12:54:59;;;;;;;4.15;3.80;;;;;;;;;;5095522;28;20466;-55
2024/02/19 12:57:26;;;;;;;6.60;4.55;;;;;;;;;;5077440;28;20032;-55
2024/02/19 12:59:53;;;;;;;4.70;4.07;;;;;;;;;;5095336;28;20074;-55
2024/02/19 13:02:18;;;;;;;4.80;3.58;;;;;;;;;;5077180;28;20024;-55
2024/02/19 13:04:45;;;;;;;5.03;4.05;;;;;;;;;;5077121;28;20023;-55
2024/02/19 13:07:10;;;;;;;3.92;3.58;;;;;;;;;;5095276;28;20053;-55
2024/02/19 13:09:35;;;;;;;4.28;3.53;;;;;;;;;;5095229;28;20386;-55
2024/02/19 13:12:01;;;;;;;4.38;3.97;;;;;;;;;;5076972;28;20051;-55
2024/02/19 13:14:28;;;;;;;3.83;3.50;;;;;;;;;;5095015;28;20386;-55
2024/02/19 13:16:55;;;;;;;4.15;3.72;;;;;;;;;;5077613;28;20047;-55
2024/02/19 13:19:21;;;;;;;3.85;3.55;;;;;;;;;;5095257;28;20028;-55
2024/02/19 13:21:46;;;;;;;5.15;3.72;;;;;;;;;;5095374;28;20046;-55
2024/02/19 13:24:12;;;;;;;4.05;3.67;;;;;;;;;;5077057;28;20174;-55
2024/02/19 13:26:37;;;;;;;4.43;3.75;;;;;;;;;;5095174;28;20032;-56
2024/02/19 13:29:04;;;;;;;5.93;4.25;;;;;;;;;;5076672;28;20032;-55
2024/02/19 13:31:29;;;;;;;6.78;4.95;;;;;;;;;;5094791;28;20035;-57
2024/02/19 13:33:55;;;;;;;5.18;4.40;;;;;;;;;;5094247;28;20081;-56
2024/02/19 13:36:22;;;;;;;4.80;4.35;;;;;;;;;;5076981;28;20085;-56
2024/02/19 13:38:50;;;;;;;5.60;4.40;;;;;;;;;;5094858;28;20028;-56
2024/02/19 13:41:16;;;;;;;6.88;4.68;;;;;;;;;;5094580;28;20386;-56
2024/02/19 13:43:42;;;;;;;4.90;4.40;;;;;;;;;;5094795;28;20036;-56
2024/02/19 13:46:08;;;;;;;6.40;4.88;;;;;;;;;;5076446;28;20466;-56
2024/02/19 13:48:33;;;;;;;4.90;4.22;;;;;;;;;;5094518;28;20177;-56
2024/02/19 13:51:00;;;;;;;4.10;3.72;;;;;;;;;;5094711;28;20485;-56
2024/02/19 13:53:29;;;;;;;5.55;4.07;;;;;;;;;;5076292;28;20124;-56
2024/02/19 13:55:55;;;;;;;4.13;3.72;;;;;;;;;;5094891;28;20110;-56
2024/02/19 13:58:23;;;;;;;7.07;5.07;;;;;;;;;;5094325;28;20024;-56
2024/02/19 14:00:49;;;;;;;3.42;3.13;;;;;;;;;;5094207;28;20071;-56
2024/02/19 14:03:16;;;;;;;2.85;2.65;;;;;;;;;;5094217;28;20055;-56
2024/02/19 14:05:41;;;;;;;3.53;3.17;;;;;;;;;;5095113;28;20024;-56
2024/02/19 14:08:07;;;;;;;3.15;2.90;;;;;;;;;;5094181;28;20055;-56
2024/02/19 14:10:33;;;;;;;3.67;3.00;;;;;;;;;;5094344;28;20101;-56
2024/02/19 14:12:59;;;;;;;2.95;2.70;;;;;;;;;;5094089;28;20032;-56
2024/02/19 14:15:25;;;;;;;2.53;2.22;;;;;;;;;;5076168;28;20035;-56
2024/02/19 14:17:56;;;;;;;2.22;2.03;;;;;;;;;;5094230;28;20038;-56